14°C Temp
11°C Dewpoint
% Humidity
Temperature
3 KM/H
2 MPH
2 KTS
Calm
Due North

Wind Speed
Despejado
Pressure 1010.92 (hPa) - 29.85 (in)
Visibility 6.2 (mi) - 10.0 (km)

Current Conditions
LEAL
Location 70(km)
Metar :LEAL 242030Z VRB02KT CAVOK 14/11 Q1011 NOSIG
Wed 24th April 22:30 pm

Airport
  Metar Aviation API Data Provided by https://www.checkwx.com/ PHP scripts by weather34.com ©2019